Time;durP1;ratioP1;P1;durP2;ratioP2;P2;SDS_P1;SDS_P2;PMS_P1;PMS_P2;Temp;Humidity;BMP_temperature;BMP_pressure;BME280_temperature;BME280_humidity;BME280_pressure;Samples;Min_cycle;Max_cycle;Signal;HPM_P1;HPM_P2
2021/01/08 00:02:20;;;;;;;27.73;19.75;;;2.40;99.90;;;;;;5094999;28;20207;-41
2021/01/08 00:04:47;;;;;;;25.05;19.00;;;2.40;99.90;;;;;;5095056;28;20214;-40
2021/01/08 00:07:15;;;;;;;23.67;18.30;;;2.50;99.90;;;;;;5095231;28;20238;-40
2021/01/08 00:09:42;;;;;;;23.67;18.60;;;2.50;99.90;;;;;;5094847;28;20657;-40
2021/01/08 00:12:09;;;;;;;23.73;18.50;;;2.40;99.90;;;;;;5094599;28;20831;-41
2021/01/08 00:14:36;;;;;;;24.73;19.03;;;2.40;99.90;;;;;;5093968;28;20211;-40
2021/01/08 00:17:04;;;;;;;27.53;20.77;;;2.40;99.90;;;;;;5094915;28;20293;-40
2021/01/08 00:19:31;;;;;;;27.02;20.00;;;2.40;99.90;;;;;;5095003;28;20227;-41
2021/01/08 00:21:58;;;;;;;26.00;21.13;;;2.40;99.90;;;;;;5094893;28;20264;-41
2021/01/08 00:24:26;;;;;;;26.50;20.00;;;2.40;99.90;;;;;;5094566;28;20216;-43
2021/01/08 00:26:54;;;;;;;26.02;20.80;;;2.40;99.90;;;;;;5094642;28;20295;-40
2021/01/08 00:29:22;;;;;;;30.50;20.30;;;2.40;99.90;;;;;;5094469;28;20207;-40
2021/01/08 00:31:49;;;;;;;26.10;20.23;;;2.40;99.90;;;;;;5094643;28;20524;-40
2021/01/08 00:34:18;;;;;;;27.95;20.42;;;2.40;99.90;;;;;;5094655;28;20314;-40
2021/01/08 00:36:52;;;;;;;29.88;20.88;;;2.40;99.90;;;;;;5095097;28;20297;-41
2021/01/08 00:39:19;;;;;;;28.97;21.60;;;2.30;99.90;;;;;;5093235;28;20227;-41
2021/01/08 00:41:47;;;;;;;27.40;20.33;;;2.40;99.90;;;;;;5094317;28;20238;-40
2021/01/08 00:44:14;;;;;;;31.02;22.60;;;2.40;99.90;;;;;;5094539;28;20627;-40
2021/01/08 00:46:44;;;;;;;28.35;21.27;;;2.40;99.90;;;;;;5094419;28;20297;-40
2021/01/08 00:49:12;;;;;;;25.92;21.15;;;2.40;99.90;;;;;;5094244;28;20289;-38
2021/01/08 00:51:40;;;;;;;29.90;20.88;;;2.40;99.90;;;;;;5094306;28;20240;-40
2021/01/08 00:54:07;;;;;;;28.37;21.40;;;2.50;99.90;;;;;;5093999;28;20209;-41
2021/01/08 00:56:34;;;;;;;28.17;20.50;;;2.50;99.90;;;;;;5094001;28;20305;-40
2021/01/08 00:59:01;;;;;;;27.97;20.00;;;2.50;99.90;;;;;;5094101;28;20273;-40
2021/01/08 01:01:28;;;;;;;26.63;19.83;;;2.50;99.90;;;;;;5094057;28;20322;-41
2021/01/08 01:03:56;;;;;;;26.60;20.23;;;2.50;99.90;;;;;;5094313;28;20221;-40
2021/01/08 01:06:24;;;;;;;27.00;19.53;;;2.60;99.90;;;;;;5094199;28;20207;-41
2021/01/08 01:08:52;;;;;;;26.47;21.00;;;2.60;99.90;;;;;;5093936;28;20290;-40
2021/01/08 01:11:21;;;;;;;26.80;20.17;;;2.60;99.90;;;;;;5093715;28;20234;-41
2021/01/08 01:13:49;;;;;;;30.13;21.10;;;2.60;99.90;;;;;;5093613;28;20238;-40
2021/01/08 01:16:17;;;;;;;26.73;21.03;;;2.50;99.90;;;;;;5093618;28;20252;-40
2021/01/08 01:18:45;;;;;;;27.13;20.47;;;2.50;99.90;;;;;;5093589;28;20269;-40
2021/01/08 01:21:13;;;;;;;28.40;20.50;;;2.50;99.90;;;;;;5093522;28;20302;-40
2021/01/08 01:23:41;;;;;;;28.63;20.27;;;2.50;99.90;;;;;;5093412;28;20242;-42
2021/01/08 01:26:09;;;;;;;26.93;20.27;;;2.50;99.90;;;;;;5093370;28;20206;-41
2021/01/08 01:28:36;;;;;;;28.47;20.60;;;2.50;99.90;;;;;;5093349;28;20289;-40
2021/01/08 01:31:05;;;;;;;27.77;19.43;;;2.50;99.90;;;;;;5093242;28;20249;-41
2021/01/08 01:33:33;;;;;;;26.45;20.40;;;2.50;99.90;;;;;;5093447;28;20302;-40
2021/01/08 01:36:04;;;;;;;27.35;19.80;;;2.50;99.90;;;;;;5092895;28;20732;-40
2021/01/08 01:38:31;;;;;;;27.17;20.67;;;2.50;99.90;;;;;;5093228;28;20291;-41
2021/01/08 01:40:58;;;;;;;27.38;20.00;;;2.50;99.90;;;;;;5093320;28;20290;-40
2021/01/08 01:43:26;;;;;;;29.37;20.17;;;2.50;99.90;;;;;;5092860;28;20245;-40
2021/01/08 01:45:53;;;;;;;28.30;19.63;;;2.50;99.90;;;;;;5092624;28;20230;-43
2021/01/08 01:48:21;;;;;;;28.90;20.10;;;2.60;99.90;;;;;;5092819;28;20301;-40
2021/01/08 01:50:48;;;;;;;26.92;19.45;;;2.50;99.90;;;;;;5092848;28;20290;-40
2021/01/08 01:53:15;;;;;;;27.00;20.10;;;2.50;99.90;;;;;;5092887;28;20594;-40
2021/01/08 01:55:44;;;;;;;27.38;20.20;;;2.50;99.90;;;;;;5093032;28;20600;-40
2021/01/08 01:58:11;;;;;;;29.53;19.27;;;2.50;99.90;;;;;;5092486;28;20244;-39
2021/01/08 02:00:39;;;;;;;27.02;19.23;;;2.50;99.90;;;;;;5093041;28;20289;-40
2021/01/08 02:03:11;;;;;;;28.85;21.27;;;2.40;99.90;;;;;;5092551;28;20295;-40
2021/01/08 02:05:40;;;;;;;29.37;19.20;;;2.40;99.90;;;;;;5092868;28;20284;-40
2021/01/08 02:08:11;;;;;;;26.77;19.80;;;2.40;99.90;;;;;;5092641;28;20213;-40
2021/01/08 02:10:41;;;;;;;25.65;19.58;;;2.40;99.90;;;;;;5092466;28;20269;-40
2021/01/08 02:13:15;;;;;;;24.37;18.77;;;2.40;99.90;;;;;;5092488;28;20234;-40
2021/01/08 02:15:44;;;;;;;29.20;19.00;;;2.40;99.90;;;;;;5092447;28;20294;-40
2021/01/08 02:18:13;;;;;;;27.73;18.83;;;2.40;99.90;;;;;;5092901;28;20237;-41
2021/01/08 02:20:40;;;;;;;25.77;18.27;;;2.40;99.90;;;;;;5092401;28;20290;-40
2021/01/08 02:23:14;;;;;;;24.38;17.38;;;2.40;99.90;;;;;;5092034;28;20217;-41
2021/01/08 02:25:43;;;;;;;24.27;17.77;;;2.30;99.90;;;;;;5092185;28;20602;-40
2021/01/08 02:28:25;;;;;;;24.73;18.83;;;2.30;99.90;;;;;;5091954;28;20293;-41
2021/01/08 02:30:53;;;;;;;22.48;16.55;;;2.30;99.90;;;;;;5092339;28;20267;-40
2021/01/08 02:33:21;;;;;;;21.40;16.98;;;2.20;99.90;;;;;;5092176;28;20587;-40
2021/01/08 02:35:50;;;;;;;23.10;17.08;;;2.20;99.90;;;;;;5092240;28;20207;-41
2021/01/08 02:38:20;;;;;;;23.57;17.83;;;2.30;99.90;;;;;;5092029;28;20776;-40
2021/01/08 02:40:49;;;;;;;24.07;17.33;;;2.20;99.90;;;;;;5092067;28;20385;-40
2021/01/08 02:43:20;;;;;;;24.90;17.70;;;2.20;99.90;;;;;;5092330;28;20336;-40
2021/01/08 02:45:47;;;;;;;26.58;18.85;;;2.20;99.90;;;;;;5092211;28;20242;-39
2021/01/08 02:48:14;;;;;;;23.43;18.13;;;2.20;99.90;;;;;;5092353;28;20282;-41
2021/01/08 02:50:42;;;;;;;22.77;17.77;;;2.10;99.90;;;;;;5092283;28;20218;-39
2021/01/08 02:53:13;;;;;;;23.10;17.50;;;2.20;99.90;;;;;;5092061;28;20632;-41
2021/01/08 02:55:48;;;;;;;25.87;18.93;;;2.20;99.90;;;;;;5092308;28;20257;-39
2021/01/08 02:58:16;;;;;;;25.63;18.70;;;2.20;99.90;;;;;;5092043;28;20318;-42
2021/01/08 03:00:44;;;;;;;23.97;17.30;;;2.20;99.90;;;;;;5092230;28;20214;-40
2021/01/08 03:03:11;;;;;;;28.10;19.30;;;2.10;99.90;;;;;;5096221;28;20206;-40
2021/01/08 03:05:39;;;;;;;23.75;18.60;;;2.10;99.90;;;;;;5096063;28;20623;-40
2021/01/08 03:08:06;;;;;;;27.40;19.92;;;2.10;99.90;;;;;;5096460;28;20215;-41
2021/01/08 03:10:33;;;;;;;27.57;19.57;;;2.20;99.90;;;;;;5096089;28;20234;-40
2021/01/08 03:13:03;;;;;;;25.50;18.83;;;2.20;99.90;;;;;;5096275;28;20242;-39
2021/01/08 03:15:35;;;;;;;26.93;20.00;;;2.20;99.90;;;;;;5097248;28;20210;-39
2021/01/08 03:18:03;;;;;;;25.48;18.60;;;2.20;99.90;;;;;;5098341;28;20664;-38
2021/01/08 03:20:30;;;;;;;28.63;20.33;;;2.20;99.90;;;;;;5096683;28;20334;-39
2021/01/08 03:22:57;;;;;;;25.63;19.10;;;2.20;99.90;;;;;;5096238;28;20301;-39
2021/01/08 03:25:24;;;;;;;27.65;19.67;;;2.10;99.90;;;;;;5096056;28;20276;-39
2021/01/08 03:27:52;;;;;;;25.40;19.13;;;2.10;99.90;;;;;;5095899;28;20259;-39
2021/01/08 03:30:20;;;;;;;29.50;19.60;;;2.10;99.90;;;;;;5095715;28;20314;-39
2021/01/08 03:32:48;;;;;;;23.60;18.65;;;2.10;99.90;;;;;;5095729;28;20301;-39
2021/01/08 03:35:15;;;;;;;28.20;21.50;;;2.00;99.90;;;;;;5095774;28;20217;-39
2021/01/08 03:37:43;;;;;;;25.97;20.87;;;2.00;99.90;;;;;;5095802;28;20207;-39
2021/01/08 03:40:10;;;;;;;28.38;20.58;;;2.00;99.90;;;;;;5095504;28;20661;-40
2021/01/08 03:42:38;;;;;;;29.40;20.87;;;2.00;99.90;;;;;;5095852;28;20238;-39
2021/01/08 03:45:06;;;;;;;24.77;20.03;;;2.00;99.90;;;;;;5095446;28;20552;-41
2021/01/08 03:47:33;;;;;;;26.23;20.20;;;2.00;99.90;;;;;;5095583;28;20253;-42
2021/01/08 03:50:01;;;;;;;25.63;20.48;;;2.00;99.90;;;;;;5095447;28;20203;-40
2021/01/08 03:52:28;;;;;;;30.55;21.00;;;1.90;99.90;;;;;;5095405;28;20210;-39
2021/01/08 03:54:55;;;;;;;29.50;20.20;;;1.90;99.90;;;;;;5095465;28;20213;-39
2021/01/08 03:57:22;;;;;;;27.17;20.30;;;1.90;99.90;;;;;;5095190;28;20210;-39
2021/01/08 03:59:49;;;;;;;23.03;17.37;;;2.00;99.90;;;;;;5095065;28;20317;-40
2021/01/08 04:02:16;;;;;;;25.00;19.50;;;2.00;99.90;;;;;;5095459;28;20302;-40
2021/01/08 04:04:44;;;;;;;27.25;20.75;;;2.00;99.90;;;;;;5095265;28;20218;-40
2021/01/08 04:07:11;;;;;;;26.95;19.52;;;1.90;99.90;;;;;;5095164;28;20289;-40
2021/01/08 04:09:38;;;;;;;27.07;19.53;;;1.90;99.90;;;;;;5095019;28;20198;-41
2021/01/08 04:12:06;;;;;;;26.30;20.60;;;2.00;99.90;;;;;;5094731;28;20310;-40
2021/01/08 04:14:33;;;;;;;26.63;19.50;;;2.00;99.90;;;;;;5095046;28;20253;-40
2021/01/08 04:17:00;;;;;;;26.77;20.13;;;2.00;99.90;;;;;;5094965;28;20214;-40
2021/01/08 04:19:27;;;;;;;27.20;22.93;;;1.90;99.90;;;;;;5094663;28;20720;-41
2021/01/08 04:21:54;;;;;;;24.63;20.03;;;1.90;99.90;;;;;;5094740;28;20669;-39
2021/01/08 04:24:22;;;;;;;29.20;22.33;;;1.90;99.90;;;;;;5094819;28;20238;-39
2021/01/08 04:26:49;;;;;;;28.87;21.80;;;1.90;99.90;;;;;;5094836;28;20306;-43
2021/01/08 04:29:16;;;;;;;27.53;20.30;;;1.80;99.90;;;;;;5094918;28;20297;-40
2021/01/08 04:31:43;;;;;;;29.23;20.97;;;1.80;99.90;;;;;;5094854;28;20295;-40
2021/01/08 04:34:10;;;;;;;29.77;20.92;;;1.80;99.90;;;;;;5094537;28;20267;-40
2021/01/08 04:36:37;;;;;;;33.93;23.53;;;1.80;99.90;;;;;;5094576;28;20214;-40
2021/01/08 04:39:04;;;;;;;32.05;21.42;;;1.80;99.90;;;;;;5094435;28;20655;-41
2021/01/08 04:41:36;;;;;;;32.85;20.67;;;1.80;99.90;;;;;;5094341;28;20228;-40
2021/01/08 04:44:03;;;;;;;28.50;20.33;;;1.80;99.90;;;;;;5094683;28;20577;-39
2021/01/08 04:46:31;;;;;;;30.75;21.98;;;1.80;99.90;;;;;;5094291;28;20674;-39
2021/01/08 04:49:01;;;;;;;32.97;23.48;;;1.80;99.90;;;;;;5094251;28;20203;-39
2021/01/08 04:51:29;;;;;;;29.23;21.03;;;1.80;99.90;;;;;;5094127;28;20211;-39
2021/01/08 04:53:57;;;;;;;26.98;19.85;;;1.80;99.90;;;;;;5094123;28;20309;-39
2021/01/08 04:56:26;;;;;;;30.17;21.83;;;1.90;99.90;;;;;;5094205;28;20569;-41
2021/01/08 04:58:54;;;;;;;32.07;22.33;;;2.00;99.90;;;;;;5094249;28;20309;-41
2021/01/08 05:01:21;;;;;;;29.30;20.63;;;2.00;99.90;;;;;;5094007;28;20306;-40
2021/01/08 05:03:48;;;;;;;24.17;19.13;;;2.10;99.90;;;;;;5093912;28;20256;-40
2021/01/08 05:06:15;;;;;;;29.47;21.17;;;2.10;99.90;;;;;;5093835;28;20561;-40
2021/01/08 05:08:42;;;;;;;29.20;20.93;;;2.10;99.90;;;;;;5093798;28;20289;-40
2021/01/08 05:11:27;;;;;;;25.10;18.80;;;2.10;99.90;;;;;;5093856;28;20670;-42
2021/01/08 05:13:56;;;;;;;27.60;18.90;;;2.10;99.90;;;;;;5093778;28;20293;-40
2021/01/08 05:16:25;;;;;;;25.23;17.90;;;2.10;99.90;;;;;;5093779;28;20271;-40
2021/01/08 05:18:54;;;;;;;30.30;20.60;;;2.10;99.90;;;;;;5093588;28;20234;-41
2021/01/08 05:21:24;;;;;;;22.15;17.48;;;2.00;99.90;;;;;;5093638;28;20249;-42
2021/01/08 05:23:52;;;;;;;28.57;18.73;;;2.10;99.90;;;;;;5092924;28;20681;-41
2021/01/08 05:26:20;;;;;;;24.67;17.90;;;2.10;99.90;;;;;;5093626;28;20211;-41
2021/01/08 05:28:48;;;;;;;28.52;18.80;;;2.20;99.90;;;;;;5093289;28;20304;-41
2021/01/08 05:31:16;;;;;;;24.90;18.77;;;2.20;99.90;;;;;;5093338;28;20202;-40
2021/01/08 05:33:44;;;;;;;24.97;18.37;;;2.20;99.90;;;;;;5093360;28;20654;-40
2021/01/08 05:36:12;;;;;;;25.60;17.80;;;2.30;99.90;;;;;;5093538;28;20252;-41
2021/01/08 05:38:43;;;;;;;23.00;17.33;;;2.30;99.90;;;;;;5093323;28;20223;-39
2021/01/08 05:41:11;;;;;;;22.87;17.67;;;2.40;99.90;;;;;;5093331;28;20297;-39
2021/01/08 05:43:42;;;;;;;26.30;17.83;;;2.30;99.90;;;;;;5093199;28;20297;-41
2021/01/08 05:46:14;;;;;;;23.70;18.37;;;2.30;99.90;;;;;;5093036;28;20354;-41
2021/01/08 05:48:46;;;;;;;24.07;17.47;;;2.30;99.90;;;;;;5093078;28;20297;-42
2021/01/08 05:51:17;;;;;;;21.15;16.60;;;2.30;99.90;;;;;;5093259;28;20241;-42
2021/01/08 05:53:48;;;;;;;24.77;16.87;;;2.30;99.90;;;;;;5092986;28;20687;-41
2021/01/08 05:56:16;;;;;;;24.67;17.83;;;2.20;99.90;;;;;;5092855;28;20645;-42
2021/01/08 05:58:44;;;;;;;21.77;16.63;;;2.20;99.90;;;;;;5093090;28;20253;-42
2021/01/08 06:01:12;;;;;;;23.87;17.77;;;2.20;99.90;;;;;;5093089;28;20249;-41
2021/01/08 06:03:40;;;;;;;25.87;17.90;;;2.20;99.90;;;;;;5092940;28;20203;-41
2021/01/08 06:06:09;;;;;;;27.17;19.33;;;2.10;99.90;;;;;;5092923;28;20299;-42
2021/01/08 06:08:38;;;;;;;23.27;17.90;;;2.10;99.90;;;;;;5092783;28;20351;-41
2021/01/08 06:11:07;;;;;;;22.00;17.13;;;2.20;99.90;;;;;;5092552;28;20333;-42
2021/01/08 06:13:35;;;;;;;24.93;18.40;;;2.20;99.90;;;;;;5092243;28;20647;-42
2021/01/08 06:16:04;;;;;;;25.20;18.03;;;2.20;99.90;;;;;;5092324;28;20524;-43
2021/01/08 06:18:36;;;;;;;24.27;17.80;;;2.20;99.90;;;;;;5092287;28;20211;-40
2021/01/08 06:21:06;;;;;;;25.50;17.50;;;2.20;99.90;;;;;;5092498;28;20230;-39
2021/01/08 06:23:38;;;;;;;24.17;17.73;;;2.20;99.90;;;;;;5092189;28;20234;-42
2021/01/08 06:26:10;;;;;;;21.75;17.52;;;2.20;99.90;;;;;;5092410;28;20215;-42
2021/01/08 06:28:42;;;;;;;35.38;22.52;;;2.10;99.90;;;;;;5092143;28;20210;-38
2021/01/08 06:31:24;;;;;;;22.95;17.75;;;2.10;99.90;;;;;;5092230;28;20234;-44
2021/01/08 06:33:53;;;;;;;24.90;18.52;;;2.10;99.90;;;;;;5092049;28;20267;-41
2021/01/08 06:36:23;;;;;;;22.77;17.75;;;2.20;99.90;;;;;;5091994;28;20293;-41
2021/01/08 06:38:53;;;;;;;26.30;19.70;;;2.10;99.90;;;;;;5092063;28;20595;-43
2021/01/08 06:41:20;;;;;;;24.80;18.13;;;2.20;99.90;;;;;;5091931;28;20674;-43
2021/01/08 06:43:53;;;;;;;23.02;17.98;;;2.10;99.90;;;;;;5091645;28;20723;-42
2021/01/08 06:46:29;;;;;;;24.48;18.27;;;2.20;99.90;;;;;;5092134;28;20217;-41
2021/01/08 06:48:57;;;;;;;22.93;17.27;;;2.20;99.90;;;;;;5092229;28;20206;-41
2021/01/08 06:51:29;;;;;;;24.10;18.52;;;2.20;99.90;;;;;;5092143;28;20209;-42
2021/01/08 06:53:59;;;;;;;21.00;16.65;;;2.30;99.90;;;;;;5092079;28;20212;-41
2021/01/08 06:56:34;;;;;;;24.63;17.92;;;2.30;99.90;;;;;;5092052;28;20210;-41
2021/01/08 06:59:02;;;;;;;25.33;17.77;;;2.30;99.90;;;;;;5091827;28;20316;-42
2021/01/08 07:01:41;;;;;;;23.50;17.83;;;2.40;99.90;;;;;;5091694;28;20206;-41
2021/01/08 07:04:14;;;;;;;24.60;17.75;;;2.30;99.90;;;;;;5091662;28;20289;-40
2021/01/08 07:06:41;;;;;;;25.60;16.40;;;2.30;99.90;;;;;;5091685;28;20669;-41
2021/01/08 07:09:09;;;;;;;25.55;18.67;;;2.30;99.90;;;;;;5091429;28;20686;-41
2021/01/08 07:11:36;;;;;;;23.52;18.23;;;2.20;99.90;;;;;;5091670;28;20238;-41
2021/01/08 07:14:12;;;;;;;28.95;18.38;;;2.20;99.90;;;;;;5091416;28;20237;-40
2021/01/08 07:16:44;;;;;;;28.17;19.15;;;2.10;99.90;;;;;;5091465;28;20637;-42
2021/01/08 07:19:13;;;;;;;24.55;18.00;;;2.10;99.90;;;;;;5091546;28;20231;-42
2021/01/08 07:21:45;;;;;;;23.50;17.53;;;2.10;99.90;;;;;;5091503;28;20228;-41
2021/01/08 07:24:16;;;;;;;24.70;19.20;;;2.10;99.90;;;;;;5091402;28;20218;-42
2021/01/08 07:26:43;;;;;;;26.38;18.52;;;2.10;99.90;;;;;;5091753;28;20213;-41
2021/01/08 07:29:11;;;;;;;29.15;20.60;;;2.10;99.90;;;;;;5091519;28;20252;-42
2021/01/08 07:31:39;;;;;;;26.40;19.63;;;2.10;99.90;;;;;;5091526;28;20257;-39
2021/01/08 07:34:09;;;;;;;28.75;19.73;;;2.10;99.90;;;;;;5091701;28;20206;-41
2021/01/08 07:36:37;;;;;;;24.83;19.83;;;2.10;99.90;;;;;;5091364;28;20664;-43
2021/01/08 07:39:06;;;;;;;26.83;19.97;;;2.00;99.90;;;;;;5091494;28;20227;-41
2021/01/08 07:41:37;;;;;;;26.95;19.33;;;2.00;99.90;;;;;;5091256;28;20272;-40
2021/01/08 07:44:26;;;;;;;23.33;18.17;;;2.00;99.90;;;;;;5091351;28;20769;-39
2021/01/08 07:46:53;;;;;;;26.97;20.27;;;2.00;99.90;;;;;;5091436;28;20293;-39
2021/01/08 07:49:28;;;;;;;28.08;19.67;;;2.00;99.90;;;;;;5095341;28;20294;-39
2021/01/08 07:51:55;;;;;;;27.20;19.83;;;2.00;99.90;;;;;;5095221;28;20203;-39
2021/01/08 07:54:51;;;;;;;27.30;19.37;;;2.00;99.90;;;;;;5095230;28;20322;-39
2021/01/08 07:57:20;;;;;;;24.73;18.87;;;2.00;99.90;;;;;;5094741;28;20221;-39
2021/01/08 07:59:47;;;;;;;24.95;18.58;;;2.00;99.90;;;;;;5094949;28;20317;-39
2021/01/08 08:02:14;;;;;;;25.10;19.15;;;2.00;99.90;;;;;;5094799;28;20206;-39
2021/01/08 08:04:42;;;;;;;26.85;19.73;;;2.10;99.90;;;;;;5094756;28;20216;-39
2021/01/08 08:07:13;;;;;;;24.60;18.63;;;2.20;99.90;;;;;;5094817;28;20596;-39
2021/01/08 08:09:40;;;;;;;25.73;19.20;;;2.30;99.90;;;;;;5094546;28;20243;-39
2021/01/08 08:12:11;;;;;;;25.23;18.33;;;2.40;99.90;;;;;;5094472;28;20655;-42
2021/01/08 08:14:39;;;;;;;26.52;19.08;;;2.40;99.90;;;;;;5094489;28;20746;-40
2021/01/08 08:17:08;;;;;;;23.60;17.90;;;2.40;99.90;;;;;;5094529;28;20202;-39
2021/01/08 08:19:35;;;;;;;24.65;18.80;;;2.40;99.90;;;;;;5093746;28;20232;-40
2021/01/08 08:22:03;;;;;;;22.05;17.45;;;2.40;99.90;;;;;;5094397;28;20272;-40
2021/01/08 08:24:30;;;;;;;23.60;18.30;;;2.40;99.90;;;;;;5094625;28;20207;-39
2021/01/08 08:26:57;;;;;;;23.53;18.70;;;2.40;99.90;;;;;;5094467;28;20267;-40
2021/01/08 08:29:26;;;;;;;26.23;18.98;;;2.50;99.90;;;;;;5094684;28;20206;-40
2021/01/08 08:31:54;;;;;;;23.65;17.50;;;2.50;99.90;;;;;;5094559;28;20238;-40
2021/01/08 08:34:28;;;;;;;21.93;16.80;;;2.60;99.90;;;;;;5094459;28;20207;-40
2021/01/08 08:37:05;;;;;;;25.60;17.03;;;2.60;99.90;;;;;;5094952;28;20634;-40
2021/01/08 08:39:32;;;;;;;21.83;16.13;;;2.60;99.90;;;;;;5094650;28;20222;-41
2021/01/08 08:41:59;;;;;;;21.30;16.13;;;2.60;99.90;;;;;;5094487;28;20260;-40
2021/01/08 08:44:26;;;;;;;24.43;17.80;;;2.50;99.90;;;;;;5094273;28;20272;-41
2021/01/08 08:46:55;;;;;;;23.60;17.65;;;2.50;99.90;;;;;;5094110;28;20202;-41
2021/01/08 08:49:24;;;;;;;22.87;16.83;;;2.50;99.90;;;;;;5094051;28;20270;-40
2021/01/08 08:51:53;;;;;;;21.58;15.80;;;2.60;99.90;;;;;;5094225;28;20207;-41
2021/01/08 08:54:23;;;;;;;20.48;16.38;;;2.70;99.90;;;;;;5094181;28;20238;-42
2021/01/08 08:56:52;;;;;;;23.13;17.15;;;2.70;99.90;;;;;;5094092;28;20705;-41
2021/01/08 08:59:39;;;;;;;21.38;16.48;;;2.80;99.90;;;;;;5092851;28;20374;-40
2021/01/08 09:02:09;;;;;;;22.20;15.53;;;2.80;99.90;;;;;;5093961;28;20202;-40
2021/01/08 09:04:37;;;;;;;16.98;14.45;;;2.90;99.90;;;;;;5094046;28;20272;-40
2021/01/08 09:07:12;;;;;;;20.63;15.57;;;2.90;99.90;;;;;;5093811;28;20203;-40
2021/01/08 09:09:45;;;;;;;21.02;15.70;;;3.00;99.90;;;;;;5093575;28;20686;-40
2021/01/08 09:12:29;;;;;;;19.83;15.65;;;3.00;99.90;;;;;;5093590;28;20249;-42
2021/01/08 09:15:03;;;;;;;20.40;15.60;;;2.90;99.90;;;;;;5093867;28;20245;-40
2021/01/08 09:17:36;;;;;;;19.25;14.25;;;2.90;99.90;;;;;;5093329;28;20242;-38
2021/01/08 09:20:07;;;;;;;20.27;15.63;;;2.90;99.90;;;;;;5093410;28;20413;-39
2021/01/08 09:22:37;;;;;;;20.07;15.03;;;2.90;99.90;;;;;;5093319;28;20260;-39
2021/01/08 09:25:06;;;;;;;20.10;15.33;;;2.90;99.90;;;;;;5093553;28;20203;-40
2021/01/08 09:27:34;;;;;;;17.17;14.43;;;2.90;99.90;;;;;;5093158;28;20230;-39
2021/01/08 09:30:10;;;;;;;17.77;13.70;;;3.00;99.90;;;;;;5093216;28;20207;-39
2021/01/08 09:32:38;;;;;;;18.15;14.18;;;3.00;99.90;;;;;;5092005;28;20237;-40
2021/01/08 09:35:08;;;;;;;22.50;15.88;;;3.10;99.90;;;;;;5093008;28;20210;-39
2021/01/08 09:37:41;;;;;;;19.05;14.70;;;3.10;99.90;;;;;;5093335;28;20298;-39
2021/01/08 09:40:13;;;;;;;17.95;13.10;;;3.20;99.90;;;;;;5093008;28;20318;-39
2021/01/08 09:42:40;;;;;;;19.57;13.70;;;3.30;99.90;;;;;;5093049;28;20337;-40
2021/01/08 09:45:21;;;;;;;17.23;13.80;;;3.30;99.90;;;;;;5092956;28;20301;-40
2021/01/08 09:47:50;;;;;;;16.75;13.30;;;3.40;99.90;;;;;;5092732;28;20783;-40
2021/01/08 09:50:28;;;;;;;17.77;14.18;;;3.40;99.90;;;;;;5093146;28;20199;-40
2021/01/08 09:52:59;;;;;;;17.70;14.13;;;3.50;99.90;;;;;;5092561;28;20202;-40
2021/01/08 09:55:28;;;;;;;17.80;14.68;;;3.60;99.90;;;;;;5092948;28;20207;-42
2021/01/08 09:57:59;;;;;;;16.23;13.63;;;3.60;99.90;;;;;;5092756;28;20206;-39
2021/01/08 10:00:28;;;;;;;17.23;13.20;;;3.70;99.90;;;;;;5092253;28;20253;-42
2021/01/08 10:03:03;;;;;;;15.47;12.60;;;3.70;99.90;;;;;;5092660;28;20682;-40
2021/01/08 10:05:31;;;;;;;19.47;12.87;;;3.70;99.90;;;;;;5092340;28;20249;-40
2021/01/08 10:08:00;;;;;;;18.58;13.45;;;3.60;99.90;;;;;;5092607;28;20218;-40
2021/01/08 10:10:41;;;;;;;19.27;14.47;;;3.60;99.90;;;;;;5092053;28;20291;-39
2021/01/08 10:13:20;;;;;;;18.53;14.93;;;3.60;99.90;;;;;;5092422;28;20641;-39
2021/01/08 10:15:48;;;;;;;22.63;17.48;;;3.50;99.90;;;;;;5092339;28;20242;-40
2021/01/08 10:18:22;;;;;;;17.05;13.35;;;3.50;99.90;;;;;;5092240;28;20211;-40
2021/01/08 10:20:50;;;;;;;25.40;17.65;;;3.60;99.90;;;;;;5092218;28;20656;-40
2021/01/08 10:23:19;;;;;;;15.68;12.68;;;3.60;99.90;;;;;;5092381;28;20289;-41
2021/01/08 10:25:47;;;;;;;18.02;13.43;;;3.60;99.90;;;;;;5092200;28;20206;-40
2021/01/08 10:28:17;;;;;;;16.65;12.80;;;3.60;99.90;;;;;;5092277;28;20214;-40
2021/01/08 10:30:45;;;;;;;15.68;12.80;;;3.50;99.90;;;;;;5092499;28;20286;-40
2021/01/08 10:33:21;;;;;;;19.35;15.05;;;3.50;99.90;;;;;;5092185;28;20268;-40
2021/01/08 10:35:50;;;;;;;15.05;12.70;;;3.40;99.90;;;;;;5092114;28;20257;-40
2021/01/08 10:38:17;;;;;;;19.23;13.25;;;3.40;99.90;;;;;;5092089;28;20262;-40
2021/01/08 10:40:44;;;;;;;14.50;11.77;;;3.50;99.90;;;;;;5092128;28;20300;-40
2021/01/08 10:43:11;;;;;;;15.55;12.35;;;3.60;99.90;;;;;;5092153;28;20281;-40
2021/01/08 10:45:41;;;;;;;15.83;12.37;;;3.70;99.90;;;;;;5092005;28;20256;-40
2021/01/08 10:48:09;;;;;;;15.68;12.80;;;3.70;99.90;;;;;;5092059;28;20435;-40
2021/01/08 10:50:37;;;;;;;18.83;13.77;;;3.70;99.90;;;;;;5092111;28;20210;-40
2021/01/08 10:53:05;;;;;;;18.25;13.32;;;3.70;99.90;;;;;;5092174;28;20645;-40
2021/01/08 10:55:32;;;;;;;14.87;12.43;;;3.80;99.90;;;;;;5091700;28;20203;-40
2021/01/08 10:58:00;;;;;;;17.30;13.90;;;3.70;99.90;;;;;;5091807;28;20211;-40
2021/01/08 11:00:27;;;;;;;15.63;12.52;;;3.60;99.90;;;;;;5091781;28;20261;-40
2021/01/08 11:02:54;;;;;;;16.00;12.43;;;3.60;99.90;;;;;;5091814;28;20260;-43
2021/01/08 11:05:21;;;;;;;18.52;12.07;;;3.50;99.90;;;;;;5091896;28;20207;-42
2021/01/08 11:07:49;;;;;;;14.60;11.80;;;3.50;99.90;;;;;;5091761;28;20614;-41
2021/01/08 11:10:16;;;;;;;16.15;13.25;;;3.50;99.90;;;;;;5091460;28;20577;-40
2021/01/08 11:12:44;;;;;;;15.52;12.02;;;3.50;99.90;;;;;;5092226;28;20277;-39
2021/01/08 11:15:11;;;;;;;15.87;12.10;;;3.40;99.90;;;;;;5091689;28;20259;-39
2021/01/08 11:17:38;;;;;;;15.40;11.30;;;3.50;99.90;;;;;;5091660;28;20637;-40
2021/01/08 11:20:07;;;;;;;13.68;11.25;;;3.50;99.90;;;;;;5091607;28;20719;-42
2021/01/08 11:22:34;;;;;;;13.73;11.95;;;3.70;99.90;;;;;;5094448;28;20275;-40
2021/01/08 11:25:02;;;;;;;15.13;11.15;;;3.70;99.90;;;;;;5095685;28;20285;-40
2021/01/08 11:27:29;;;;;;;14.30;11.23;;;3.80;99.90;;;;;;5095554;28;20597;-40
2021/01/08 11:29:56;;;;;;;13.52;11.40;;;3.90;99.90;;;;;;5095603;28;20206;-40
2021/01/08 11:32:23;;;;;;;14.63;10.75;;;4.00;99.90;;;;;;5095734;28;20217;-40
2021/01/08 11:34:50;;;;;;;14.95;11.23;;;4.00;99.90;;;;;;5095556;28;20266;-41
2021/01/08 11:37:17;;;;;;;12.55;10.73;;;4.00;99.90;;;;;;5095313;28;20768;-40
2021/01/08 11:39:46;;;;;;;12.82;10.68;;;4.00;99.90;;;;;;5095330;28;20229;-40
2021/01/08 11:42:15;;;;;;;12.88;10.50;;;4.10;99.90;;;;;;5095260;28;20233;-40
2021/01/08 11:44:42;;;;;;;14.25;10.80;;;4.20;99.90;;;;;;5095426;28;20214;-40
2021/01/08 11:47:09;;;;;;;14.80;11.40;;;4.20;99.90;;;;;;5095189;28;20729;-40
2021/01/08 11:49:37;;;;;;;12.75;11.27;;;4.20;99.90;;;;;;5095065;28;20215;-41
2021/01/08 11:52:05;;;;;;;13.85;11.15;;;4.10;99.90;;;;;;5095039;28;20721;-40
2021/01/08 11:54:32;;;;;;;12.43;10.68;;;4.00;99.90;;;;;;5094879;28;20207;-41
2021/01/08 11:57:03;;;;;;;11.10;9.90;;;3.90;99.90;;;;;;5095018;28;20710;-41
2021/01/08 11:59:31;;;;;;;17.60;13.57;;;3.80;99.90;;;;;;5094890;28;20593;-42
2021/01/08 12:02:03;;;;;;;16.45;13.13;;;3.80;99.90;;;;;;5094863;28;20211;-41
2021/01/08 12:04:31;;;;;;;14.73;10.27;;;3.80;99.90;;;;;;5094735;28;20211;-40
2021/01/08 12:07:00;;;;;;;12.23;10.88;;;3.80;99.90;;;;;;5094698;28;20217;-42
2021/01/08 12:09:27;;;;;;;12.82;11.43;;;3.70;99.90;;;;;;5094596;28;20207;-40
2021/01/08 12:12:00;;;;;;;12.97;11.40;;;3.70;99.90;;;;;;5094539;28;20602;-40
2021/01/08 12:14:27;;;;;;;15.27;12.23;;;3.60;99.90;;;;;;5094551;28;20209;-40
2021/01/08 12:16:55;;;;;;;12.93;11.15;;;3.70;99.90;;;;;;5094552;28;20683;-39
2021/01/08 12:19:23;;;;;;;13.00;11.05;;;3.70;99.90;;;;;;5094479;28;20207;-40
2021/01/08 12:21:50;;;;;;;16.27;11.18;;;3.80;99.90;;;;;;5094305;28;20210;-40
2021/01/08 12:24:17;;;;;;;14.50;11.52;;;3.80;99.90;;;;;;5094547;28;20250;-39
2021/01/08 12:26:44;;;;;;;13.18;11.77;;;3.80;99.90;;;;;;5094509;28;20638;-40
2021/01/08 12:29:11;;;;;;;11.97;10.63;;;3.70;99.90;;;;;;5094251;28;20290;-39
2021/01/08 12:31:38;;;;;;;12.83;10.23;;;3.70;99.90;;;;;;5094187;28;20224;-40
2021/01/08 12:34:06;;;;;;;12.82;10.80;;;3.70;99.90;;;;;;5094030;28;20213;-40
2021/01/08 12:36:33;;;;;;;14.52;10.93;;;3.70;99.90;;;;;;5093891;28;20297;-39
2021/01/08 12:39:01;;;;;;;12.65;11.25;;;3.70;99.90;;;;;;5094464;28;20583;-39
2021/01/08 12:41:30;;;;;;;15.75;11.35;;;3.70;99.90;;;;;;5094147;28;20222;-40
2021/01/08 12:43:59;;;;;;;13.07;10.35;;;3.80;99.90;;;;;;5094191;28;20562;-39
2021/01/08 12:46:26;;;;;;;12.98;10.88;;;3.90;99.90;;;;;;5094133;28;20263;-40